createdAt,value
2023-04-22T00:00:04.178Z,130.000000
2023-04-22T00:01:01.137Z,132.500000
2023-04-22T00:02:01.252Z,132.500000
2023-04-22T00:03:01.312Z,132.500000
2023-04-22T00:04:01.609Z,132.500000
2023-04-22T00:05:04.678Z,132.500000
2023-04-22T00:06:01.409Z,132.500000
2023-04-22T00:07:01.161Z,132.500000
2023-04-22T00:08:01.255Z,132.500000
2023-04-22T00:09:00.165Z,132.500000
2023-04-22T00:10:02.913Z,132.500000
2023-04-22T00:11:00.204Z,132.500000
2023-04-22T00:12:00.604Z,132.500000
2023-04-22T00:13:00.181Z,132.500000
2023-04-22T00:14:00.697Z,130.000000
2023-04-22T00:15:02.763Z,130.000000
2023-04-22T00:16:00.670Z,130.000000
2023-04-22T00:17:00.210Z,130.000000
2023-04-22T00:18:00.880Z,130.000000
2023-04-22T00:19:00.220Z,135.000000
2023-04-22T00:20:03.060Z,135.000000
2023-04-22T00:21:00.262Z,140.000000
2023-04-22T00:22:00.806Z,140.000000
2023-04-22T00:23:00.237Z,140.000000
2023-04-22T00:24:01.118Z,137.500000
2023-04-22T00:25:02.821Z,137.500000
2023-04-22T00:26:01.165Z,150.000000
2023-04-22T00:27:00.291Z,150.000000
2023-04-22T00:28:01.071Z,150.000000
2023-04-22T00:29:00.294Z,140.000000
2023-04-22T00:30:03.155Z,140.000000
2023-04-22T00:31:00.377Z,140.000000
2023-04-22T00:32:01.400Z,140.000000
2023-04-22T00:33:00.411Z,140.000000
2023-04-22T00:34:01.338Z,140.000000
2023-04-22T00:35:02.848Z,140.000000
2023-04-22T00:36:01.547Z,140.000000
2023-04-22T00:37:00.340Z,140.000000
2023-04-22T00:38:00.401Z,140.000000
2023-04-22T00:39:00.348Z,135.000000
2023-04-22T00:40:03.497Z,135.000000
2023-04-22T00:41:00.347Z,130.000000
2023-04-22T00:42:00.422Z,130.000000
2023-04-22T00:43:00.353Z,130.000000
2023-04-22T00:44:00.502Z,127.500000
2023-04-22T00:45:03.384Z,127.500000
2023-04-22T00:46:07.682Z,127.500000
2023-04-22T00:47:00.431Z,127.500000
2023-04-22T00:48:00.505Z,127.500000
2023-04-22T00:49:00.380Z,127.500000
2023-04-22T00:50:04.249Z,127.500000
2023-04-22T00:51:00.444Z,120.000000
2023-04-22T00:52:00.492Z,120.000000
2023-04-22T00:53:00.407Z,120.000000
2023-04-22T00:54:00.480Z,140.000000
2023-04-22T00:55:02.777Z,140.000000
2023-04-22T00:56:00.479Z,150.000000
2023-04-22T00:57:00.426Z,150.000000
2023-04-22T00:58:00.511Z,150.000000
2023-04-22T00:59:00.438Z,142.500000
2023-04-22T01:00:04.680Z,142.500000
2023-04-22T01:01:00.512Z,142.500000
2023-04-22T01:02:00.603Z,142.500000
2023-04-22T01:03:00.601Z,142.500000
2023-04-22T01:04:02.986Z,140.000000
2023-04-22T01:05:03.050Z,140.000000
2023-04-22T01:06:00.594Z,140.000000
2023-04-22T01:07:00.506Z,145.000000
2023-04-22T01:08:00.591Z,145.000000
2023-04-22T01:09:00.523Z,135.000000
2023-04-22T01:10:03.304Z,135.000000
2023-04-22T01:11:00.532Z,135.000000
2023-04-22T01:12:03.736Z,137.500000
2023-04-22T01:13:00.529Z,137.500000
2023-04-22T01:15:08.452Z,130.000000
2023-04-22T01:16:00.609Z,130.000000
2023-04-22T01:17:00.809Z,130.000000
2023-04-22T01:18:00.685Z,130.000000
2023-04-22T01:19:00.555Z,135.000000
2023-04-22T01:20:03.464Z,135.000000
2023-04-22T01:21:00.598Z,135.000000
2023-04-22T01:22:00.664Z,135.000000
2023-04-22T01:23:00.570Z,135.000000
2023-04-22T01:24:00.671Z,135.000000
2023-04-22T01:25:03.126Z,132.500000
2023-04-22T01:26:00.680Z,132.500000
2023-04-22T01:27:00.622Z,132.500000
2023-04-22T01:28:00.669Z,132.500000
2023-04-22T01:29:00.610Z,132.500000
2023-04-22T01:30:04.722Z,132.500000
2023-04-22T01:31:00.625Z,132.500000
2023-04-22T01:32:00.842Z,132.500000
2023-04-22T01:33:00.854Z,132.500000
2023-04-22T01:34:00.743Z,132.500000
2023-04-22T01:35:02.996Z,132.500000
2023-04-22T01:36:00.735Z,132.500000
2023-04-22T01:37:00.652Z,135.000000
2023-04-22T01:38:00.870Z,135.000000
2023-04-22T01:39:00.702Z,135.000000
2023-04-22T01:40:05.739Z,135.000000
2023-04-22T01:41:00.709Z,135.000000
2023-04-22T01:42:00.753Z,132.500000
2023-04-22T01:43:00.700Z,132.500000
2023-04-22T01:44:00.785Z,132.500000
2023-04-22T01:45:03.169Z,137.500000
2023-04-22T01:46:00.810Z,137.500000
2023-04-22T01:47:00.728Z,137.500000
2023-04-22T01:48:00.960Z,135.000000
2023-04-22T01:49:00.712Z,135.000000
2023-04-22T01:50:04.706Z,130.000000
2023-04-22T01:51:00.744Z,130.000000
2023-04-22T01:52:00.812Z,145.000000
2023-04-22T01:53:00.759Z,145.000000
2023-04-22T01:54:00.842Z,145.000000
2023-04-22T01:55:03.136Z,145.000000
2023-04-22T01:56:00.834Z,145.000000
2023-04-22T01:57:00.787Z,142.500000
2023-04-22T01:58:00.818Z,142.500000
2023-04-22T01:59:00.771Z,142.500000
2023-04-22T02:00:03.699Z,140.000000
2023-04-22T02:01:00.838Z,140.000000
2023-04-22T02:02:01.037Z,142.500000
2023-04-22T02:03:01.009Z,142.500000
2023-04-22T02:04:00.915Z,130.000000
2023-04-22T02:05:03.588Z,130.000000
2023-04-22T02:06:00.950Z,130.000000
2023-04-22T02:07:00.844Z,132.500000
2023-04-22T02:08:00.925Z,132.500000
2023-04-22T02:09:00.876Z,132.500000
2023-04-22T02:10:03.800Z,142.500000
2023-04-22T02:11:00.885Z,142.500000
2023-04-22T02:12:00.965Z,132.500000
2023-04-22T02:13:00.871Z,132.500000
2023-04-22T02:14:00.962Z,132.500000
2023-04-22T02:15:03.306Z,130.000000
2023-04-22T02:16:01.015Z,130.000000
2023-04-22T02:17:00.910Z,130.000000
2023-04-22T02:18:00.982Z,135.000000
2023-04-22T02:19:00.899Z,135.000000
2023-04-22T02:20:04.001Z,135.000000
2023-04-22T02:21:00.919Z,135.000000
2023-04-22T02:22:00.985Z,135.000000
2023-04-22T02:23:00.927Z,130.000000
2023-04-22T02:24:01.039Z,130.000000
2023-04-22T02:25:03.332Z,130.000000
2023-04-22T02:26:01.045Z,130.000000
2023-04-22T02:27:00.978Z,137.500000
2023-04-22T02:28:01.037Z,137.500000
2023-04-22T02:29:00.950Z,137.500000
2023-04-22T02:30:03.798Z,140.000000
2023-04-22T02:31:01.005Z,140.000000
2023-04-22T02:32:01.064Z,140.000000
2023-04-22T02:33:01.020Z,127.500000
2023-04-22T02:34:01.068Z,127.500000
2023-04-22T02:35:04.298Z,135.000000
2023-04-22T02:36:01.082Z,135.000000
2023-04-22T02:37:01.012Z,135.000000
2023-04-22T02:38:01.281Z,135.000000
2023-04-22T02:39:01.035Z,135.000000
2023-04-22T02:40:03.876Z,135.000000
2023-04-22T02:41:01.043Z,135.000000
2023-04-22T02:42:01.123Z,135.000000
2023-04-22T02:43:01.045Z,135.000000
2023-04-22T02:44:01.145Z,130.000000
2023-04-22T02:45:03.703Z,130.000000
2023-04-22T02:46:01.131Z,132.500000
2023-04-22T02:47:01.154Z,132.500000
2023-04-22T02:48:01.299Z,162.500000
2023-04-22T02:49:01.072Z,162.500000
2023-04-22T02:50:04.028Z,145.000000
2023-04-22T02:51:01.109Z,145.000000
2023-04-22T02:52:01.148Z,145.000000
2023-04-22T02:53:01.107Z,105.000000
2023-04-22T02:54:01.183Z,105.000000
2023-04-22T02:55:03.541Z,105.000000
2023-04-22T02:56:01.196Z,100.000000
2023-04-22T02:57:01.118Z,100.000000
2023-04-22T02:58:01.194Z,115.000000
2023-04-22T02:59:01.128Z,115.000000
2023-04-22T03:00:04.668Z,127.500000
2023-04-22T03:01:01.200Z,127.500000
2023-04-22T03:02:00.710Z,127.500000
2023-04-22T03:03:00.405Z,127.500000
2023-04-22T03:04:00.757Z,130.000000
2023-04-22T03:05:02.584Z,130.000000
2023-04-22T03:06:00.288Z,125.000000
2023-04-22T03:07:00.195Z,125.000000
2023-04-22T03:08:00.270Z,125.000000
2023-04-22T03:09:00.201Z,137.500000
2023-04-22T03:10:03.226Z,137.500000
2023-04-22T03:11:00.211Z,132.500000
2023-04-22T03:12:00.304Z,132.500000
2023-04-22T03:13:00.228Z,130.000000
2023-04-22T03:14:00.942Z,130.000000
2023-04-22T03:15:02.675Z,130.000000
2023-04-22T03:16:00.332Z,132.500000
2023-04-22T03:17:00.302Z,132.500000
2023-04-22T03:18:00.340Z,132.500000
2023-04-22T03:19:00.253Z,132.500000
2023-04-22T03:20:03.376Z,132.500000
2023-04-22T03:21:00.273Z,135.000000
2023-04-22T03:22:00.357Z,135.000000
2023-04-22T03:23:00.265Z,135.000000
2023-04-22T03:24:00.375Z,135.000000
2023-04-22T03:25:02.655Z,135.000000
2023-04-22T03:26:00.404Z,137.500000
2023-04-22T03:27:00.299Z,137.500000
2023-04-22T03:28:00.884Z,137.500000
2023-04-22T03:29:00.331Z,130.000000
2023-04-22T03:30:03.759Z,130.000000
2023-04-22T03:31:00.317Z,137.500000
2023-04-22T03:32:00.503Z,137.500000
2023-04-22T03:33:00.429Z,137.500000
2023-04-22T03:34:00.410Z,130.000000
2023-04-22T03:35:02.738Z,130.000000
2023-04-22T03:36:00.441Z,135.000000
2023-04-22T03:37:00.352Z,135.000000
2023-04-22T03:38:00.461Z,127.500000
2023-04-22T03:39:00.366Z,127.500000
2023-04-22T03:40:03.103Z,127.500000
2023-04-22T03:41:00.377Z,135.000000
2023-04-22T03:42:00.890Z,135.000000
2023-04-22T03:43:00.376Z,130.000000
2023-04-22T03:44:02.029Z,130.000000
2023-04-22T03:45:03.263Z,132.500000
2023-04-22T03:46:00.956Z,132.500000
2023-04-22T03:47:00.413Z,132.500000
2023-04-22T03:48:00.533Z,132.500000
2023-04-22T03:49:00.402Z,132.500000
2023-04-22T03:50:03.122Z,132.500000
2023-04-22T03:51:00.437Z,132.500000
2023-04-22T03:52:00.503Z,132.500000
2023-04-22T03:53:00.428Z,132.500000
2023-04-22T03:54:00.507Z,130.000000
2023-04-22T03:55:03.406Z,130.000000
2023-04-22T03:56:00.513Z,130.000000
2023-04-22T03:57:00.451Z,130.000000
2023-04-22T03:58:00.527Z,130.000000
2023-04-22T03:59:00.457Z,137.500000
2023-04-22T04:00:05.344Z,137.500000
2023-04-22T04:01:00.512Z,137.500000
2023-04-22T04:02:00.613Z,135.000000
2023-04-22T04:03:00.694Z,135.000000
2023-04-22T04:04:01.252Z,140.000000
2023-04-22T04:05:03.203Z,140.000000
2023-04-22T04:06:00.649Z,135.000000
2023-04-22T04:07:00.567Z,135.000000
2023-04-22T04:08:00.600Z,135.000000
2023-04-22T04:09:00.540Z,132.500000
2023-04-22T04:10:03.590Z,132.500000
2023-04-22T04:11:00.551Z,135.000000
2023-04-22T04:12:00.642Z,135.000000
2023-04-22T04:13:00.550Z,135.000000
2023-04-22T04:14:00.617Z,127.500000
2023-04-22T04:15:02.923Z,127.500000
2023-04-22T04:16:00.939Z,127.500000
2023-04-22T04:17:00.573Z,135.000000
2023-04-22T04:18:00.762Z,135.000000
2023-04-22T04:19:00.575Z,132.500000
2023-04-22T04:20:03.476Z,132.500000
2023-04-22T04:21:00.600Z,132.500000
2023-04-22T04:22:01.940Z,132.500000
2023-04-22T04:23:00.601Z,132.500000
2023-04-22T04:24:00.707Z,132.500000
2023-04-22T04:25:04.166Z,137.500000
2023-04-22T04:26:00.693Z,137.500000
2023-04-22T04:27:00.615Z,137.500000
2023-04-22T04:28:00.687Z,137.500000
2023-04-22T04:29:00.629Z,140.000000
2023-04-22T04:30:03.332Z,140.000000
2023-04-22T04:31:00.736Z,132.500000
2023-04-22T04:32:00.709Z,132.500000
2023-04-22T04:33:00.737Z,132.500000
2023-04-22T04:34:00.910Z,130.000000
2023-04-22T04:35:05.355Z,130.000000
2023-04-22T04:36:00.721Z,130.000000
2023-04-22T04:37:00.659Z,140.000000
2023-04-22T04:38:00.740Z,140.000000
2023-04-22T04:39:00.684Z,130.000000
2023-04-22T04:40:03.493Z,130.000000
2023-04-22T04:41:00.706Z,135.000000
2023-04-22T04:42:00.779Z,135.000000
2023-04-22T04:43:00.693Z,135.000000
2023-04-22T04:44:00.777Z,132.500000
2023-04-22T04:45:03.566Z,132.500000
2023-04-22T04:46:00.782Z,132.500000
2023-04-22T04:47:01.118Z,135.000000
2023-04-22T04:48:00.920Z,135.000000
2023-04-22T04:49:00.746Z,135.000000
2023-04-22T04:50:03.476Z,140.000000
2023-04-22T04:51:00.745Z,140.000000
2023-04-22T04:52:01.859Z,135.000000
2023-04-22T04:53:00.774Z,135.000000
2023-04-22T04:54:00.843Z,132.500000
2023-04-22T04:55:03.585Z,132.500000
2023-04-22T04:56:00.906Z,132.500000
2023-04-22T04:57:00.771Z,130.000000
2023-04-22T04:58:00.845Z,130.000000
2023-04-22T04:59:00.798Z,132.500000
2023-04-22T05:00:04.242Z,132.500000
2023-04-22T05:01:00.792Z,132.500000
2023-04-22T05:02:00.924Z,130.000000
2023-04-22T05:03:01.013Z,130.000000
2023-04-22T05:04:01.013Z,132.500000
2023-04-22T05:05:03.492Z,132.500000
2023-04-22T05:06:00.935Z,132.500000
2023-04-22T05:07:00.843Z,130.000000
2023-04-22T05:08:00.920Z,130.000000
2023-04-22T05:09:00.870Z,130.000000
2023-04-22T05:10:05.508Z,132.500000
2023-04-22T05:11:00.857Z,132.500000
2023-04-22T05:12:00.965Z,140.000000
2023-04-22T05:13:03.983Z,140.000000
2023-04-22T05:14:00.948Z,140.000000
2023-04-22T05:15:03.518Z,140.000000
2023-04-22T05:16:00.986Z,140.000000
2023-04-22T05:17:00.980Z,140.000000
2023-04-22T05:18:01.058Z,140.000000
2023-04-22T05:19:00.894Z,140.000000
2023-04-22T05:20:04.521Z,140.000000
2023-04-22T05:21:00.949Z,140.000000
2023-04-22T05:22:01.039Z,140.000000
2023-04-22T05:23:00.934Z,145.000000
2023-04-22T05:24:01.007Z,145.000000
2023-04-22T05:25:03.302Z,140.000000
2023-04-22T05:26:01.009Z,140.000000
2023-04-22T05:27:00.953Z,140.000000
2023-04-22T05:28:01.041Z,140.000000
2023-04-22T05:29:00.967Z,140.000000
2023-04-22T05:30:04.638Z,140.000000
2023-04-22T05:31:00.975Z,140.000000
2023-04-22T05:32:01.128Z,140.000000
2023-04-22T05:33:01.063Z,142.500000
2023-04-22T05:34:01.072Z,142.500000
2023-04-22T05:35:03.599Z,140.000000
2023-04-22T05:36:01.077Z,140.000000
2023-04-22T05:37:00.981Z,130.000000
2023-04-22T05:38:01.072Z,130.000000
2023-04-22T05:39:01.010Z,130.000000
2023-04-22T05:40:03.983Z,142.500000
2023-04-22T05:41:01.029Z,142.500000
2023-04-22T05:42:01.129Z,142.500000
2023-04-22T05:43:01.049Z,137.500000
2023-04-22T05:44:01.191Z,137.500000
2023-04-22T05:45:03.500Z,137.500000
2023-04-22T05:46:01.218Z,132.500000
2023-04-22T05:47:01.050Z,132.500000
2023-04-22T05:48:01.231Z,135.000000
2023-04-22T05:49:01.054Z,135.000000
2023-04-22T05:50:04.320Z,140.000000
2023-04-22T05:51:01.114Z,140.000000
2023-04-22T05:52:01.213Z,140.000000
2023-04-22T05:53:01.096Z,127.500000
2023-04-22T05:54:01.180Z,127.500000
2023-04-22T05:55:03.449Z,127.500000
2023-04-22T05:56:01.193Z,130.000000
2023-04-22T05:57:01.119Z,130.000000
2023-04-22T05:58:01.207Z,140.000000
2023-04-22T05:59:01.129Z,140.000000
2023-04-22T06:00:04.224Z,142.500000
2023-04-22T06:01:01.143Z,142.500000
2023-04-22T06:02:01.219Z,142.500000
2023-04-22T06:03:00.318Z,140.000000
2023-04-22T06:04:00.612Z,140.000000
2023-04-22T06:05:02.871Z,140.000000
2023-04-22T06:06:00.490Z,135.000000
2023-04-22T06:07:00.157Z,135.000000
2023-04-22T06:08:00.247Z,132.500000
2023-04-22T06:09:00.181Z,132.500000
2023-04-22T06:10:05.446Z,132.500000
2023-04-22T06:11:00.211Z,132.500000
2023-04-22T06:12:00.263Z,132.500000
2023-04-22T06:13:00.187Z,132.500000
2023-04-22T06:14:00.270Z,132.500000
2023-04-22T06:15:03.530Z,132.500000
2023-04-22T06:16:01.025Z,140.000000
2023-04-22T06:17:00.216Z,140.000000
2023-04-22T06:18:00.394Z,142.500000
2023-04-22T06:19:00.258Z,142.500000
2023-04-22T06:20:03.401Z,142.500000
2023-04-22T06:21:00.294Z,142.500000
2023-04-22T06:22:00.343Z,142.500000
2023-04-22T06:23:00.263Z,142.500000
2023-04-22T06:24:00.348Z,142.500000
2023-04-22T06:25:02.794Z,142.500000
2023-04-22T06:26:00.379Z,135.000000
2023-04-22T06:27:00.308Z,135.000000
2023-04-22T06:28:00.358Z,140.000000
2023-04-22T06:29:00.302Z,140.000000
2023-04-22T06:30:03.570Z,140.000000
2023-04-22T06:31:00.336Z,137.500000
2023-04-22T06:32:00.408Z,137.500000
2023-04-22T06:33:00.408Z,135.000000
2023-04-22T06:34:00.413Z,135.000000
2023-04-22T06:35:04.982Z,135.000000
2023-04-22T06:36:00.449Z,135.000000
2023-04-22T06:37:00.351Z,135.000000
2023-04-22T06:38:00.403Z,140.000000
2023-04-22T06:39:00.404Z,140.000000
2023-04-22T06:40:03.028Z,140.000000
2023-04-22T06:41:00.380Z,135.000000
2023-04-22T06:42:00.940Z,135.000000
2023-04-22T06:43:00.373Z,140.000000
2023-04-22T06:44:00.446Z,140.000000
2023-04-22T06:45:02.907Z,137.500000
2023-04-22T06:46:00.916Z,137.500000
2023-04-22T06:47:00.419Z,137.500000
2023-04-22T06:48:00.526Z,135.000000
2023-04-22T06:49:00.412Z,135.000000
2023-04-22T06:50:03.272Z,135.000000
2023-04-22T06:51:00.404Z,132.500000
2023-04-22T06:52:00.465Z,132.500000
2023-04-22T06:53:00.416Z,135.000000
2023-04-22T06:54:00.493Z,135.000000
2023-04-22T06:55:02.911Z,145.000000
2023-04-22T06:56:00.579Z,145.000000
2023-04-22T06:57:00.458Z,145.000000
2023-04-22T06:58:00.536Z,137.500000
2023-04-22T06:59:00.436Z,137.500000
2023-04-22T07:00:03.750Z,137.500000
2023-04-22T07:01:00.457Z,125.000000
2023-04-22T07:02:00.654Z,125.000000
2023-04-22T07:03:00.610Z,125.000000
2023-04-22T07:04:00.945Z,130.000000
2023-04-22T07:05:05.000Z,130.000000
2023-04-22T07:06:00.556Z,132.500000
2023-04-22T07:07:00.484Z,132.500000
2023-04-22T07:08:00.583Z,130.000000
2023-04-22T07:09:00.500Z,130.000000
2023-04-22T07:10:03.975Z,130.000000
2023-04-22T07:11:00.528Z,140.000000
2023-04-22T07:12:00.621Z,140.000000
2023-04-22T07:13:00.528Z,140.000000
2023-04-22T07:14:00.627Z,140.000000
2023-04-22T07:15:04.665Z,140.000000
2023-04-22T07:16:00.676Z,150.000000
2023-04-22T07:17:00.581Z,150.000000
2023-04-22T07:18:01.049Z,150.000000
2023-04-22T07:19:00.565Z,150.000000
2023-04-22T07:20:03.893Z,150.000000
2023-04-22T07:21:00.590Z,142.500000
2023-04-22T07:22:00.999Z,142.500000
2023-04-22T07:23:00.572Z,142.500000
2023-04-22T07:24:00.672Z,152.500000
2023-04-22T07:25:02.964Z,152.500000
2023-04-22T07:26:00.965Z,152.500000
2023-04-22T07:27:00.642Z,145.000000
2023-04-22T07:28:00.682Z,145.000000
2023-04-22T07:29:00.667Z,145.000000
2023-04-22T07:30:03.751Z,145.000000
2023-04-22T07:31:00.619Z,145.000000
2023-04-22T07:32:00.749Z,145.000000
2023-04-22T07:33:00.666Z,145.000000
2023-04-22T07:34:00.723Z,132.500000
2023-04-22T07:35:03.174Z,132.500000
2023-04-22T07:36:00.736Z,140.000000
2023-04-22T07:37:00.654Z,140.000000
2023-04-22T07:38:00.741Z,140.000000
2023-04-22T07:39:00.695Z,137.500000
2023-04-22T07:40:03.575Z,137.500000
2023-04-22T07:41:00.671Z,150.000000
2023-04-22T07:42:00.906Z,150.000000
2023-04-22T07:43:00.697Z,150.000000
2023-04-22T07:44:00.941Z,150.000000
2023-04-22T07:45:03.069Z,150.000000
2023-04-22T07:46:00.951Z,150.000000
2023-04-22T07:47:00.701Z,135.000000
2023-04-22T07:48:00.823Z,135.000000
2023-04-22T07:49:00.707Z,145.000000
2023-04-22T07:50:03.582Z,145.000000
2023-04-22T07:51:00.763Z,145.000000
2023-04-22T07:52:00.795Z,155.000000
2023-04-22T07:53:00.779Z,155.000000
2023-04-22T07:54:00.833Z,155.000000
2023-04-22T07:55:03.116Z,162.500000
2023-04-22T07:56:02.168Z,162.500000
2023-04-22T07:57:00.767Z,130.000000
2023-04-22T07:58:00.870Z,130.000000
2023-04-22T07:59:00.778Z,162.500000
2023-04-22T08:00:03.790Z,162.500000
2023-04-22T08:01:00.842Z,140.000000
2023-04-22T08:02:00.967Z,140.000000
2023-04-22T08:03:00.927Z,140.000000
2023-04-22T08:04:01.118Z,142.500000
2023-04-22T08:05:06.741Z,142.500000
2023-04-22T08:06:00.934Z,142.500000
2023-04-22T08:07:03.467Z,142.500000
2023-04-22T08:08:00.949Z,142.500000
2023-04-22T08:09:00.852Z,145.000000
2023-04-22T08:10:03.497Z,145.000000
2023-04-22T08:11:00.882Z,145.000000
2023-04-22T08:12:00.950Z,145.000000
2023-04-22T08:13:00.868Z,145.000000
2023-04-22T08:14:00.968Z,145.000000
2023-04-22T08:15:03.588Z,145.000000
2023-04-22T08:16:00.988Z,145.000000
2023-04-22T08:17:00.887Z,160.000000
2023-04-22T08:18:01.097Z,160.000000
2023-04-22T08:19:00.892Z,160.000000
2023-04-22T08:20:05.850Z,160.000000
2023-04-22T08:21:00.934Z,160.000000
2023-04-22T08:22:00.988Z,155.000000
2023-04-22T08:23:00.908Z,155.000000
2023-04-22T08:24:01.004Z,130.000000
2023-04-22T08:25:03.285Z,130.000000
2023-04-22T08:26:01.028Z,130.000000
2023-04-22T08:27:00.933Z,140.000000
2023-04-22T08:28:01.011Z,140.000000
2023-04-22T08:29:00.956Z,140.000000
2023-04-22T08:30:03.884Z,140.000000
2023-04-22T08:31:01.091Z,140.000000
2023-04-22T08:32:01.061Z,145.000000
2023-04-22T08:33:01.012Z,145.000000
2023-04-22T08:34:01.060Z,145.000000
2023-04-22T08:35:05.486Z,145.000000
2023-04-22T08:36:01.079Z,145.000000
2023-04-22T08:37:00.987Z,150.000000
2023-04-22T08:38:01.085Z,150.000000
2023-04-22T08:39:01.008Z,137.500000
2023-04-22T08:40:03.735Z,137.500000
2023-04-22T08:41:01.007Z,137.500000
2023-04-22T08:42:01.110Z,152.500000
2023-04-22T08:43:01.026Z,152.500000
2023-04-22T08:44:01.254Z,142.500000
2023-04-22T08:45:03.598Z,142.500000
2023-04-22T08:46:01.137Z,142.500000
2023-04-22T08:47:02.889Z,150.000000
2023-04-22T08:48:01.155Z,150.000000
2023-04-22T08:49:01.063Z,150.000000
2023-04-22T08:50:03.934Z,147.500000
2023-04-22T08:51:01.085Z,147.500000
2023-04-22T08:52:01.152Z,142.500000
2023-04-22T08:53:01.060Z,142.500000
2023-04-22T08:54:01.207Z,142.500000
2023-04-22T08:55:03.492Z,140.000000
2023-04-22T08:56:01.172Z,140.000000
2023-04-22T08:57:01.100Z,137.500000
2023-04-22T08:58:01.209Z,137.500000
2023-04-22T08:59:01.144Z,137.500000
2023-04-22T09:00:05.658Z,147.500000
2023-04-22T09:01:01.155Z,147.500000
2023-04-22T09:02:01.498Z,140.000000
2023-04-22T09:03:01.252Z,140.000000
2023-04-22T09:04:01.313Z,140.000000
2023-04-22T09:05:03.578Z,145.000000
2023-04-22T09:06:00.254Z,145.000000
2023-04-22T09:07:00.171Z,147.500000
2023-04-22T09:08:00.269Z,147.500000
2023-04-22T09:09:00.195Z,147.500000
2023-04-22T09:10:04.800Z,132.500000
2023-04-22T09:11:00.187Z,132.500000
2023-04-22T09:12:00.281Z,132.500000
2023-04-22T09:13:00.200Z,145.000000
2023-04-22T09:14:00.319Z,145.000000
2023-04-22T09:15:02.647Z,145.000000
2023-04-22T09:16:00.354Z,145.000000
2023-04-22T09:17:00.214Z,145.000000
2023-04-22T09:18:00.979Z,155.000000
2023-04-22T09:19:00.222Z,155.000000
2023-04-22T09:20:03.220Z,150.000000
2023-04-22T09:21:00.260Z,150.000000
2023-04-22T09:22:00.949Z,150.000000
2023-04-22T09:23:00.226Z,157.500000
2023-04-22T09:24:00.334Z,157.500000
2023-04-22T09:25:02.668Z,160.000000
2023-04-22T09:26:00.982Z,160.000000
2023-04-22T09:27:00.282Z,160.000000
2023-04-22T09:28:00.341Z,150.000000
2023-04-22T09:29:00.264Z,150.000000
2023-04-22T09:30:03.285Z,165.000000
2023-04-22T09:31:00.258Z,165.000000
2023-04-22T09:32:00.420Z,165.000000
2023-04-22T09:33:00.389Z,137.500000
2023-04-22T09:34:00.352Z,137.500000
2023-04-22T09:35:02.773Z,150.000000
2023-04-22T09:36:00.380Z,150.000000
2023-04-22T09:37:00.392Z,150.000000
2023-04-22T09:38:00.416Z,155.000000
2023-04-22T09:39:00.319Z,155.000000
2023-04-22T09:40:03.520Z,152.500000
2023-04-22T09:41:00.314Z,152.500000
2023-04-22T09:42:00.945Z,145.000000
2023-04-22T09:43:00.337Z,145.000000
2023-04-22T09:44:00.480Z,145.000000
2023-04-22T09:45:02.730Z,140.000000
2023-04-22T09:46:00.999Z,140.000000
2023-04-22T09:47:00.360Z,140.000000
2023-04-22T09:48:00.503Z,150.000000
2023-04-22T09:49:00.356Z,150.000000
2023-04-22T09:50:03.265Z,152.500000
2023-04-22T09:51:00.389Z,152.500000
2023-04-22T09:52:00.453Z,155.000000
2023-04-22T09:53:00.392Z,155.000000
2023-04-22T09:54:00.524Z,155.000000
2023-04-22T09:55:03.572Z,145.000000
2023-04-22T09:56:00.491Z,145.000000
2023-04-22T09:57:00.436Z,145.000000
2023-04-22T09:58:00.484Z,137.500000
2023-04-22T09:59:00.417Z,137.500000
2023-04-22T10:00:03.396Z,142.500000
2023-04-22T10:01:00.477Z,142.500000
2023-04-22T10:02:00.538Z,142.500000
2023-04-22T10:03:00.600Z,160.000000
2023-04-22T10:04:01.027Z,160.000000
2023-04-22T10:05:03.153Z,160.000000
2023-04-22T10:06:00.556Z,145.000000
2023-04-22T10:07:00.467Z,145.000000
2023-04-22T10:08:00.630Z,150.000000
2023-04-22T10:09:00.503Z,150.000000
2023-04-22T10:10:03.593Z,150.000000
2023-04-22T10:11:00.512Z,147.500000
2023-04-22T10:12:00.588Z,147.500000
2023-04-22T10:13:00.513Z,137.500000
2023-04-22T10:14:00.615Z,137.500000
2023-04-22T10:15:02.975Z,147.500000
2023-04-22T10:16:00.634Z,147.500000
2023-04-22T10:17:00.569Z,147.500000
2023-04-22T10:18:00.998Z,145.000000
2023-04-22T10:19:00.550Z,145.000000
2023-04-22T10:20:03.631Z,145.000000
2023-04-22T10:21:00.571Z,145.000000
2023-04-22T10:22:00.965Z,145.000000
2023-04-22T10:23:00.573Z,145.000000
2023-04-22T10:24:00.818Z,162.500000
2023-04-22T10:25:03.082Z,162.500000
2023-04-22T10:26:01.066Z,162.500000
2023-04-22T10:27:00.631Z,160.000000
2023-04-22T10:28:00.658Z,160.000000
2023-04-22T10:29:00.582Z,160.000000
2023-04-22T10:30:03.656Z,152.500000
2023-04-22T10:31:00.617Z,152.500000
2023-04-22T10:32:00.686Z,152.500000
2023-04-22T10:33:00.659Z,145.000000
2023-04-22T10:34:00.985Z,145.000000
2023-04-22T10:35:02.982Z,145.000000
2023-04-22T10:36:00.720Z,152.500000
2023-04-22T10:37:00.880Z,152.500000
2023-04-22T10:38:00.737Z,140.000000
2023-04-22T10:39:00.681Z,140.000000
2023-04-22T10:40:03.589Z,137.500000
2023-04-22T10:41:00.662Z,137.500000
2023-04-22T10:42:00.775Z,137.500000
2023-04-22T10:43:00.694Z,140.000000
2023-04-22T10:44:00.806Z,140.000000
2023-04-22T10:45:03.101Z,140.000000
2023-04-22T10:46:00.783Z,150.000000
2023-04-22T10:47:00.723Z,150.000000
2023-04-22T10:48:01.065Z,152.500000
2023-04-22T10:49:00.713Z,152.500000
2023-04-22T10:50:04.517Z,155.000000
2023-04-22T10:51:00.771Z,155.000000
2023-04-22T10:52:01.131Z,155.000000
2023-04-22T10:53:00.765Z,150.000000
2023-04-22T10:54:00.840Z,150.000000
2023-04-22T10:55:03.312Z,150.000000
2023-04-22T10:56:01.020Z,160.000000
2023-04-22T10:57:00.788Z,160.000000
2023-04-22T10:58:00.884Z,147.500000
2023-04-22T10:59:00.777Z,147.500000
2023-04-22T11:00:03.691Z,137.500000
2023-04-22T11:01:00.811Z,137.500000
2023-04-22T11:02:00.972Z,137.500000
2023-04-22T11:03:00.895Z,160.000000
2023-04-22T11:04:00.912Z,160.000000
2023-04-22T11:05:03.242Z,165.000000
2023-04-22T11:06:00.914Z,165.000000